sensor_id;sensor_type;location;lat;lon;timestamp;pressure;altitude;pressure_sealevel;temperature
53667;BMP280;39568;51.026;5.468;2022-11-14T00:02:06;100632.72;;;3.74
53667;BMP280;39568;51.026;5.468;2022-11-14T00:04:33;100642.53;;;3.64
53667;BMP280;39568;51.026;5.468;2022-11-14T00:06:59;100644.22;;;3.58
53667;BMP280;39568;51.026;5.468;2022-11-14T00:09:27;100646.72;;;3.62
53667;BMP280;39568;51.026;5.468;2022-11-14T00:11:55;100636.66;;;3.60
53667;BMP280;39568;51.026;5.468;2022-11-14T00:14:21;100629.97;;;3.68
53667;BMP280;39568;51.026;5.468;2022-11-14T00:16:48;100629.38;;;3.64
53667;BMP280;39568;51.026;5.468;2022-11-14T00:19:15;100624.78;;;3.56
53667;BMP280;39568;51.026;5.468;2022-11-14T00:21:41;100618.31;;;3.47
53667;BMP280;39568;51.026;5.468;2022-11-14T00:24:08;100624.28;;;3.39
53667;BMP280;39568;51.026;5.468;2022-11-14T00:26:35;100619.88;;;3.36
53667;BMP280;39568;51.026;5.468;2022-11-14T00:29:03;100613.28;;;3.31
53667;BMP280;39568;51.026;5.468;2022-11-14T00:31:30;100610.16;;;3.24
53667;BMP280;39568;51.026;5.468;2022-11-14T00:33:56;100614.09;;;3.19
53667;BMP280;39568;51.026;5.468;2022-11-14T00:36:23;100612.47;;;3.13
53667;BMP280;39568;51.026;5.468;2022-11-14T00:38:51;100619.84;;;3.05
53667;BMP280;39568;51.026;5.468;2022-11-14T00:41:18;100606.47;;;2.90
53667;BMP280;39568;51.026;5.468;2022-11-14T00:43:45;100606.84;;;2.80
53667;BMP280;39568;51.026;5.468;2022-11-14T00:46:13;100609.38;;;2.71
53667;BMP280;39568;51.026;5.468;2022-11-14T00:48:40;100604.38;;;2.64
53667;BMP280;39568;51.026;5.468;2022-11-14T00:51:06;100602.41;;;2.55
53667;BMP280;39568;51.026;5.468;2022-11-14T00:53:33;100600.03;;;2.48
53667;BMP280;39568;51.026;5.468;2022-11-14T00:56:00;100590.06;;;2.43
53667;BMP280;39568;51.026;5.468;2022-11-14T00:58:26;100585.34;;;2.38
53667;BMP280;39568;51.026;5.468;2022-11-14T01:00:53;100580.63;;;2.33
53667;BMP280;39568;51.026;5.468;2022-11-14T01:03:21;100574.34;;;2.30
53667;BMP280;39568;51.026;5.468;2022-11-14T01:05:49;100582.78;;;2.25
53667;BMP280;39568;51.026;5.468;2022-11-14T01:08:18;100578.78;;;2.21
53667;BMP280;39568;51.026;5.468;2022-11-14T01:10:47;100575.88;;;2.19
53667;BMP280;39568;51.026;5.468;2022-11-14T01:13:15;100576.00;;;2.15
53667;BMP280;39568;51.026;5.468;2022-11-14T01:15:45;100577.25;;;2.11
53667;BMP280;39568;51.026;5.468;2022-11-14T01:18:13;100568.75;;;2.07
53667;BMP280;39568;51.026;5.468;2022-11-14T01:20:42;100570.41;;;2.01
53667;BMP280;39568;51.026;5.468;2022-11-14T01:23:11;100571.28;;;1.98
53667;BMP280;39568;51.026;5.468;2022-11-14T01:25:38;100561.09;;;1.87
53667;BMP280;39568;51.026;5.468;2022-11-14T01:28:06;100566.25;;;1.90
53667;BMP280;39568;51.026;5.468;2022-11-14T01:30:33;100574.84;;;2.04
53667;BMP280;39568;51.026;5.468;2022-11-14T01:33:00;100573.53;;;2.21
53667;BMP280;39568;51.026;5.468;2022-11-14T01:35:27;100572.97;;;2.38
53667;BMP280;39568;51.026;5.468;2022-11-14T01:37:55;100568.47;;;2.39
53667;BMP280;39568;51.026;5.468;2022-11-14T01:40:21;100563.09;;;2.30
53667;BMP280;39568;51.026;5.468;2022-11-14T01:45:52;100548.88;;;2.18
53667;BMP280;39568;51.026;5.468;2022-11-14T01:48:20;100545.13;;;2.07
53667;BMP280;39568;51.026;5.468;2022-11-14T01:50:52;100536.13;;;1.95
53667;BMP280;39568;51.026;5.468;2022-11-14T01:53:21;100536.75;;;1.86
53667;BMP280;39568;51.026;5.468;2022-11-14T01:55:48;100542.88;;;1.83
53667;BMP280;39568;51.026;5.468;2022-11-14T01:58:15;100544.78;;;1.83
53667;BMP280;39568;51.026;5.468;2022-11-14T02:00:42;100538.78;;;1.82
53667;BMP280;39568;51.026;5.468;2022-11-14T02:03:10;100540.38;;;2.27
53667;BMP280;39568;51.026;5.468;2022-11-14T02:05:38;100538.72;;;2.42
53667;BMP280;39568;51.026;5.468;2022-11-14T02:08:07;100532.00;;;2.41
53667;BMP280;39568;51.026;5.468;2022-11-14T02:10:37;100537.88;;;2.11
53667;BMP280;39568;51.026;5.468;2022-11-14T02:13:04;100536.97;;;1.92
53667;BMP280;39568;51.026;5.468;2022-11-14T02:15:31;100536.78;;;1.74
53667;BMP280;39568;51.026;5.468;2022-11-14T02:17:58;100534.16;;;1.61
53667;BMP280;39568;51.026;5.468;2022-11-14T02:20:28;100525.69;;;1.44
53667;BMP280;39568;51.026;5.468;2022-11-14T02:22:57;100526.31;;;1.36
53667;BMP280;39568;51.026;5.468;2022-11-14T02:25:24;100516.25;;;1.60
53667;BMP280;39568;51.026;5.468;2022-11-14T02:27:51;100509.09;;;1.73
53667;BMP280;39568;51.026;5.468;2022-11-14T02:30:21;100509.97;;;1.44
53667;BMP280;39568;51.026;5.468;2022-11-14T02:32:48;100503.59;;;1.33
53667;BMP280;39568;51.026;5.468;2022-11-14T02:35:14;100502.72;;;1.23
53667;BMP280;39568;51.026;5.468;2022-11-14T02:37:42;100505.13;;;1.18
53667;BMP280;39568;51.026;5.468;2022-11-14T02:40:10;100494.00;;;1.14
53667;BMP280;39568;51.026;5.468;2022-11-14T02:42:37;100500.28;;;1.04
53667;BMP280;39568;51.026;5.468;2022-11-14T02:45:04;100494.75;;;1.02
53667;BMP280;39568;51.026;5.468;2022-11-14T02:47:31;100496.91;;;0.90
53667;BMP280;39568;51.026;5.468;2022-11-14T02:49:57;100493.75;;;0.83
53667;BMP280;39568;51.026;5.468;2022-11-14T02:52:24;100499.81;;;0.80
53667;BMP280;39568;51.026;5.468;2022-11-14T02:54:52;100493.63;;;0.74
53667;BMP280;39568;51.026;5.468;2022-11-14T02:57:18;100493.00;;;0.70
53667;BMP280;39568;51.026;5.468;2022-11-14T02:59:45;100491.66;;;0.90
53667;BMP280;39568;51.026;5.468;2022-11-14T03:02:12;100493.47;;;0.93
53667;BMP280;39568;51.026;5.468;2022-11-14T03:04:39;100497.94;;;0.80
53667;BMP280;39568;51.026;5.468;2022-11-14T03:07:05;100491.91;;;0.67
53667;BMP280;39568;51.026;5.468;2022-11-14T03:09:32;100495.06;;;0.62
53667;BMP280;39568;51.026;5.468;2022-11-14T03:12:00;100493.59;;;0.61
53667;BMP280;39568;51.026;5.468;2022-11-14T03:14:29;100476.44;;;0.73
53667;BMP280;39568;51.026;5.468;2022-11-14T03:16:55;100476.84;;;0.71
53667;BMP280;39568;51.026;5.468;2022-11-14T03:19:22;100478.31;;;0.72
53667;BMP280;39568;51.026;5.468;2022-11-14T03:21:49;100481.63;;;0.60
53667;BMP280;39568;51.026;5.468;2022-11-14T03:24:15;100473.75;;;0.47
53667;BMP280;39568;51.026;5.468;2022-11-14T03:26:42;100483.16;;;0.45
53667;BMP280;39568;51.026;5.468;2022-11-14T03:29:10;100477.78;;;0.36
53667;BMP280;39568;51.026;5.468;2022-11-14T03:31:37;100485.53;;;0.27
53667;BMP280;39568;51.026;5.468;2022-11-14T03:34:03;100474.91;;;0.18
53667;BMP280;39568;51.026;5.468;2022-11-14T03:36:30;100463.50;;;0.12
53667;BMP280;39568;51.026;5.468;2022-11-14T03:38:57;100464.00;;;0.48
53667;BMP280;39568;51.026;5.468;2022-11-14T03:41:23;100470.13;;;0.58
53667;BMP280;39568;51.026;5.468;2022-11-14T03:43:50;100470.56;;;0.69
53667;BMP280;39568;51.026;5.468;2022-11-14T03:46:18;100462.41;;;0.79
53667;BMP280;39568;51.026;5.468;2022-11-14T03:48:45;100463.91;;;0.80
53667;BMP280;39568;51.026;5.468;2022-11-14T03:51:12;100465.13;;;0.76
53667;BMP280;39568;51.026;5.468;2022-11-14T03:53:39;100461.00;;;0.49
53667;BMP280;39568;51.026;5.468;2022-11-14T03:56:06;100464.56;;;0.56
53667;BMP280;39568;51.026;5.468;2022-11-14T03:58:32;100463.78;;;0.30
53667;BMP280;39568;51.026;5.468;2022-11-14T04:00:59;100464.13;;;0.16
53667;BMP280;39568;51.026;5.468;2022-11-14T04:03:28;100463.56;;;0.08
53667;BMP280;39568;51.026;5.468;2022-11-14T04:05:55;100460.06;;;-0.02
53667;BMP280;39568;51.026;5.468;2022-11-14T04:08:22;100459.31;;;-0.02
53667;BMP280;39568;51.026;5.468;2022-11-14T04:10:48;100457.28;;;-0.11
53667;BMP280;39568;51.026;5.468;2022-11-14T04:13:15;100468.56;;;-0.14
53667;BMP280;39568;51.026;5.468;2022-11-14T04:15:42;100456.50;;;-0.24
53667;BMP280;39568;51.026;5.468;2022-11-14T04:18:08;100451.41;;;-0.31
53667;BMP280;39568;51.026;5.468;2022-11-14T04:20:36;100455.84;;;-0.28
53667;BMP280;39568;51.026;5.468;2022-11-14T04:23:03;100456.91;;;-0.25
53667;BMP280;39568;51.026;5.468;2022-11-14T04:25:30;100454.38;;;-0.29
53667;BMP280;39568;51.026;5.468;2022-11-14T04:27:56;100453.63;;;-0.29
53667;BMP280;39568;51.026;5.468;2022-11-14T04:30:23;100444.72;;;-0.32
53667;BMP280;39568;51.026;5.468;2022-11-14T04:32:49;100449.59;;;-0.34
53667;BMP280;39568;51.026;5.468;2022-11-14T04:35:17;100438.41;;;-0.34
53667;BMP280;39568;51.026;5.468;2022-11-14T04:37:46;100442.84;;;-0.31
53667;BMP280;39568;51.026;5.468;2022-11-14T04:40:13;100441.00;;;-0.34
53667;BMP280;39568;51.026;5.468;2022-11-14T04:42:40;100441.84;;;-0.37
53667;BMP280;39568;51.026;5.468;2022-11-14T04:45:07;100436.69;;;-0.41
53667;BMP280;39568;51.026;5.468;2022-11-14T04:47:34;100422.16;;;-0.42
53667;BMP280;39568;51.026;5.468;2022-11-14T04:50:01;100425.25;;;-0.47
53667;BMP280;39568;51.026;5.468;2022-11-14T04:52:27;100423.06;;;-0.49
53667;BMP280;39568;51.026;5.468;2022-11-14T04:54:55;100415.22;;;-0.49
53667;BMP280;39568;51.026;5.468;2022-11-14T04:57:22;100410.72;;;-0.48
53667;BMP280;39568;51.026;5.468;2022-11-14T04:59:49;100409.25;;;-0.49
53667;BMP280;39568;51.026;5.468;2022-11-14T05:02:15;100411.56;;;-0.51
53667;BMP280;39568;51.026;5.468;2022-11-14T05:04:42;100413.50;;;-0.55
53667;BMP280;39568;51.026;5.468;2022-11-14T05:07:10;100412.03;;;-0.56
53667;BMP280;39568;51.026;5.468;2022-11-14T05:09:37;100408.28;;;-0.55
53667;BMP280;39568;51.026;5.468;2022-11-14T05:12:05;100404.19;;;-0.56
53667;BMP280;39568;51.026;5.468;2022-11-14T05:14:32;100408.28;;;-0.55
53667;BMP280;39568;51.026;5.468;2022-11-14T05:16:59;100400.84;;;-0.57
53667;BMP280;39568;51.026;5.468;2022-11-14T05:19:25;100399.78;;;-0.59
53667;BMP280;39568;51.026;5.468;2022-11-14T05:21:52;100401.25;;;-0.58
53667;BMP280;39568;51.026;5.468;2022-11-14T05:24:19;100393.81;;;-0.60
53667;BMP280;39568;51.026;5.468;2022-11-14T05:26:45;100392.66;;;-0.59
53667;BMP280;39568;51.026;5.468;2022-11-14T05:29:13;100391.97;;;-0.59
53667;BMP280;39568;51.026;5.468;2022-11-14T05:31:40;100382.28;;;-0.62
53667;BMP280;39568;51.026;5.468;2022-11-14T05:34:07;100392.34;;;-0.61
53667;BMP280;39568;51.026;5.468;2022-11-14T05:36:33;100383.69;;;-0.58
53667;BMP280;39568;51.026;5.468;2022-11-14T05:39:00;100381.41;;;-0.56
53667;BMP280;39568;51.026;5.468;2022-11-14T05:41:26;100380.69;;;-0.56
53667;BMP280;39568;51.026;5.468;2022-11-14T05:43:53;100373.50;;;-0.52
53667;BMP280;39568;51.026;5.468;2022-11-14T05:46:21;100375.53;;;-0.43
53667;BMP280;39568;51.026;5.468;2022-11-14T05:48:48;100368.81;;;-0.44
53667;BMP280;39568;51.026;5.468;2022-11-14T05:51:14;100364.34;;;-0.44
53667;BMP280;39568;51.026;5.468;2022-11-14T05:53:41;100366.78;;;-0.37
53667;BMP280;39568;51.026;5.468;2022-11-14T05:56:10;100366.97;;;-0.28
53667;BMP280;39568;51.026;5.468;2022-11-14T05:58:37;100363.84;;;-0.23
53667;BMP280;39568;51.026;5.468;2022-11-14T06:01:06;100368.38;;;-0.11
53667;BMP280;39568;51.026;5.468;2022-11-14T06:03:36;100373.97;;;0.04
53667;BMP280;39568;51.026;5.468;2022-11-14T06:06:05;100384.53;;;0.00
53667;BMP280;39568;51.026;5.468;2022-11-14T06:08:33;100373.03;;;-0.02
53667;BMP280;39568;51.026;5.468;2022-11-14T06:11:03;100370.09;;;-0.04
53667;BMP280;39568;51.026;5.468;2022-11-14T06:13:30;100369.03;;;-0.07
53667;BMP280;39568;51.026;5.468;2022-11-14T06:15:58;100373.03;;;-0.02
53667;BMP280;39568;51.026;5.468;2022-11-14T06:18:26;100374.34;;;-0.10
53667;BMP280;39568;51.026;5.468;2022-11-14T06:20:58;100372.97;;;-0.15
53667;BMP280;39568;51.026;5.468;2022-11-14T06:23:24;100369.69;;;-0.03
53667;BMP280;39568;51.026;5.468;2022-11-14T06:25:51;100370.97;;;0.06
53667;BMP280;39568;51.026;5.468;2022-11-14T06:28:18;100375.34;;;-0.04
53667;BMP280;39568;51.026;5.468;2022-11-14T06:30:44;100378.00;;;-0.08
53667;BMP280;39568;51.026;5.468;2022-11-14T06:33:11;100381.34;;;-0.20
53667;BMP280;39568;51.026;5.468;2022-11-14T06:35:37;100394.25;;;-0.29
53667;BMP280;39568;51.026;5.468;2022-11-14T06:38:05;100394.63;;;-0.47
53667;BMP280;39568;51.026;5.468;2022-11-14T06:40:32;100391.88;;;-0.56
53667;BMP280;39568;51.026;5.468;2022-11-14T06:42:59;100391.97;;;-0.59
53667;BMP280;39568;51.026;5.468;2022-11-14T06:45:25;100378.63;;;-0.65
53667;BMP280;39568;51.026;5.468;2022-11-14T06:47:52;100378.38;;;-0.70
53667;BMP280;39568;51.026;5.468;2022-11-14T06:50:18;100379.19;;;-0.73
53667;BMP280;39568;51.026;5.468;2022-11-14T06:52:45;100363.22;;;-0.75
53667;BMP280;39568;51.026;5.468;2022-11-14T06:55:13;100372.94;;;-0.76
53667;BMP280;39568;51.026;5.468;2022-11-14T06:57:40;100373.66;;;-0.75
53667;BMP280;39568;51.026;5.468;2022-11-14T07:00:08;100379.28;;;-0.77
53667;BMP280;39568;51.026;5.468;2022-11-14T07:02:34;100385.56;;;-0.74
53667;BMP280;39568;51.026;5.468;2022-11-14T07:05:01;100383.22;;;-0.69
53667;BMP280;39568;51.026;5.468;2022-11-14T07:07:27;100393.19;;;-0.64
53667;BMP280;39568;51.026;5.468;2022-11-14T07:09:54;100386.72;;;-0.59
53667;BMP280;39568;51.026;5.468;2022-11-14T07:12:24;100386.31;;;-0.41
53667;BMP280;39568;51.026;5.468;2022-11-14T07:14:51;100391.06;;;-0.20
53667;BMP280;39568;51.026;5.468;2022-11-14T07:17:17;100398.22;;;-0.08
53667;BMP280;39568;51.026;5.468;2022-11-14T07:19:44;100391.97;;;0.02
53667;BMP280;39568;51.026;5.468;2022-11-14T07:22:10;100391.06;;;0.09
53667;BMP280;39568;51.026;5.468;2022-11-14T07:24:37;100388.34;;;0.12
53667;BMP280;39568;51.026;5.468;2022-11-14T07:27:04;100396.34;;;0.21
53667;BMP280;39568;51.026;5.468;2022-11-14T07:29:34;100401.59;;;0.34
53667;BMP280;39568;51.026;5.468;2022-11-14T07:32:00;100400.34;;;0.51
53667;BMP280;39568;51.026;5.468;2022-11-14T07:34:27;100385.53;;;0.73
53667;BMP280;39568;51.026;5.468;2022-11-14T07:36:54;100397.91;;;0.98
53667;BMP280;39568;51.026;5.468;2022-11-14T07:39:20;100390.78;;;1.24
53667;BMP280;39568;51.026;5.468;2022-11-14T07:41:47;100393.53;;;1.55
53667;BMP280;39568;51.026;5.468;2022-11-14T07:44:14;100380.72;;;1.91
53667;BMP280;39568;51.026;5.468;2022-11-14T07:46:42;100390.88;;;2.32
53667;BMP280;39568;51.026;5.468;2022-11-14T07:49:08;100378.81;;;2.75
53667;BMP280;39568;51.026;5.468;2022-11-14T07:51:35;100386.38;;;3.22
53667;BMP280;39568;51.026;5.468;2022-11-14T07:54:02;100378.81;;;3.78
53667;BMP280;39568;51.026;5.468;2022-11-14T07:56:29;100388.47;;;4.41
53667;BMP280;39568;51.026;5.468;2022-11-14T07:58:56;100392.72;;;5.04
53667;BMP280;39568;51.026;5.468;2022-11-14T08:01:23;100399.88;;;5.66
53667;BMP280;39568;51.026;5.468;2022-11-14T08:03:51;100395.66;;;6.03
53667;BMP280;39568;51.026;5.468;2022-11-14T08:06:18;100386.84;;;6.56
53667;BMP280;39568;51.026;5.468;2022-11-14T08:08:44;100390.44;;;6.93
53667;BMP280;39568;51.026;5.468;2022-11-14T08:11:11;100387.53;;;7.11
53667;BMP280;39568;51.026;5.468;2022-11-14T08:13:38;100385.34;;;7.87
53667;BMP280;39568;51.026;5.468;2022-11-14T08:16:05;100377.63;;;8.20
53667;BMP280;39568;51.026;5.468;2022-11-14T08:18:32;100378.47;;;8.37
53667;BMP280;39568;51.026;5.468;2022-11-14T08:21:04;100382.72;;;8.72
53667;BMP280;39568;51.026;5.468;2022-11-14T08:23:31;100377.97;;;8.98
53667;BMP280;39568;51.026;5.468;2022-11-14T08:25:57;100374.44;;;9.45
53667;BMP280;39568;51.026;5.468;2022-11-14T08:28:24;100370.06;;;9.92
53667;BMP280;39568;51.026;5.468;2022-11-14T08:30:51;100370.34;;;9.67
53667;BMP280;39568;51.026;5.468;2022-11-14T08:33:17;100376.34;;;9.95
53667;BMP280;39568;51.026;5.468;2022-11-14T08:35:44;100366.16;;;10.21
53667;BMP280;39568;51.026;5.468;2022-11-14T08:38:12;100368.00;;;10.89
53667;BMP280;39568;51.026;5.468;2022-11-14T08:40:39;100355.06;;;11.10
53667;BMP280;39568;51.026;5.468;2022-11-14T08:43:05;100364.88;;;11.80
53667;BMP280;39568;51.026;5.468;2022-11-14T08:45:32;100363.69;;;12.24
53667;BMP280;39568;51.026;5.468;2022-11-14T08:47:58;100362.03;;;12.58
53667;BMP280;39568;51.026;5.468;2022-11-14T08:50:25;100369.63;;;13.04
53667;BMP280;39568;51.026;5.468;2022-11-14T08:52:52;100368.97;;;12.66
53667;BMP280;39568;51.026;5.468;2022-11-14T08:55:20;100360.75;;;12.96
53667;BMP280;39568;51.026;5.468;2022-11-14T08:57:47;100351.75;;;13.44
53667;BMP280;39568;51.026;5.468;2022-11-14T09:00:14;100359.09;;;13.70
53667;BMP280;39568;51.026;5.468;2022-11-14T09:02:41;100353.44;;;12.84
53667;BMP280;39568;51.026;5.468;2022-11-14T09:05:08;100353.31;;;12.57
53667;BMP280;39568;51.026;5.468;2022-11-14T09:07:35;100356.16;;;13.42
53667;BMP280;39568;51.026;5.468;2022-11-14T09:10:02;100348.75;;;13.48
53667;BMP280;39568;51.026;5.468;2022-11-14T09:12:30;100353.28;;;13.79
53667;BMP280;39568;51.026;5.468;2022-11-14T09:14:57;100346.84;;;13.61
53667;BMP280;39568;51.026;5.468;2022-11-14T09:17:23;100339.44;;;15.02
53667;BMP280;39568;51.026;5.468;2022-11-14T09:19:50;100343.25;;;15.42
53667;BMP280;39568;51.026;5.468;2022-11-14T09:22:16;100332.13;;;14.82
53667;BMP280;39568;51.026;5.468;2022-11-14T09:24:43;100332.09;;;15.59
53667;BMP280;39568;51.026;5.468;2022-11-14T09:27:11;100343.44;;;16.24
53667;BMP280;39568;51.026;5.468;2022-11-14T09:29:40;100343.59;;;16.10
53667;BMP280;39568;51.026;5.468;2022-11-14T09:32:06;100349.25;;;15.92
53667;BMP280;39568;51.026;5.468;2022-11-14T09:34:33;100340.19;;;14.48
53667;BMP280;39568;51.026;5.468;2022-11-14T09:37:01;100348.53;;;12.88
53667;BMP280;39568;51.026;5.468;2022-11-14T09:39:28;100338.06;;;12.90
53667;BMP280;39568;51.026;5.468;2022-11-14T09:42:05;100340.56;;;12.32
53667;BMP280;39568;51.026;5.468;2022-11-14T09:44:54;100339.03;;;12.18
53667;BMP280;39568;51.026;5.468;2022-11-14T09:47:24;100347.41;;;12.46
53667;BMP280;39568;51.026;5.468;2022-11-14T09:49:56;100343.16;;;13.06
53667;BMP280;39568;51.026;5.468;2022-11-14T09:52:29;100351.59;;;13.23
53667;BMP280;39568;51.026;5.468;2022-11-14T09:55:02;100362.13;;;13.03
53667;BMP280;39568;51.026;5.468;2022-11-14T09:57:34;100351.88;;;12.38
53667;BMP280;39568;51.026;5.468;2022-11-14T10:00:11;100361.94;;;12.07
53667;BMP280;39568;51.026;5.468;2022-11-14T10:02:45;100355.47;;;12.22
53667;BMP280;39568;51.026;5.468;2022-11-14T10:05:23;100360.06;;;12.02
53667;BMP280;39568;51.026;5.468;2022-11-14T10:08:04;100351.66;;;11.44
53667;BMP280;39568;51.026;5.468;2022-11-14T10:10:43;100351.47;;;11.07
53667;BMP280;39568;51.026;5.468;2022-11-14T10:13:32;100347.06;;;11.93
53667;BMP280;39568;51.026;5.468;2022-11-14T10:16:09;100349.41;;;11.78
53667;BMP280;39568;51.026;5.468;2022-11-14T10:18:53;100345.09;;;12.18
53667;BMP280;39568;51.026;5.468;2022-11-14T10:21:33;100347.38;;;11.90
53667;BMP280;39568;51.026;5.468;2022-11-14T10:24:05;100350.22;;;12.35
53667;BMP280;39568;51.026;5.468;2022-11-14T10:26:37;100353.19;;;13.00
53667;BMP280;39568;51.026;5.468;2022-11-14T10:29:30;100359.34;;;12.95
53667;BMP280;39568;51.026;5.468;2022-11-14T10:32:04;100360.25;;;13.29
53667;BMP280;39568;51.026;5.468;2022-11-14T10:34:41;100352.38;;;13.05
53667;BMP280;39568;51.026;5.468;2022-11-14T10:37:16;100354.09;;;13.48
53667;BMP280;39568;51.026;5.468;2022-11-14T10:39:48;100348.91;;;14.28
53667;BMP280;39568;51.026;5.468;2022-11-14T10:42:24;100345.47;;;13.55
53667;BMP280;39568;51.026;5.468;2022-11-14T10:45:01;100350.84;;;13.10
53667;BMP280;39568;51.026;5.468;2022-11-14T10:47:39;100353.97;;;13.40
53667;BMP280;39568;51.026;5.468;2022-11-14T10:50:16;100352.72;;;12.83
53667;BMP280;39568;51.026;5.468;2022-11-14T10:52:44;100340.25;;;13.49
53667;BMP280;39568;51.026;5.468;2022-11-14T10:55:14;100337.06;;;13.64
53667;BMP280;39568;51.026;5.468;2022-11-14T10:57:42;100339.13;;;12.81
53667;BMP280;39568;51.026;5.468;2022-11-14T11:00:12;100327.84;;;12.75
53667;BMP280;39568;51.026;5.468;2022-11-14T11:02:52;100329.56;;;12.91
53667;BMP280;39568;51.026;5.468;2022-11-14T11:05:23;100326.78;;;12.46
53667;BMP280;39568;51.026;5.468;2022-11-14T11:07:51;100319.78;;;12.43
53667;BMP280;39568;51.026;5.468;2022-11-14T11:10:40;100326.78;;;13.68
53667;BMP280;39568;51.026;5.468;2022-11-14T11:13:30;100326.63;;;12.57
53667;BMP280;39568;51.026;5.468;2022-11-14T11:15:59;100322.00;;;13.21
53667;BMP280;39568;51.026;5.468;2022-11-14T11:18:29;100322.88;;;13.56
53667;BMP280;39568;51.026;5.468;2022-11-14T11:21:08;100315.94;;;13.99
53667;BMP280;39568;51.026;5.468;2022-11-14T11:23:36;100314.31;;;14.30
53667;BMP280;39568;51.026;5.468;2022-11-14T11:26:18;100322.19;;;14.69
53667;BMP280;39568;51.026;5.468;2022-11-14T11:29:01;100314.81;;;13.16
53667;BMP280;39568;51.026;5.468;2022-11-14T11:31:48;100308.69;;;12.21
53667;BMP280;39568;51.026;5.468;2022-11-14T11:34:27;100303.81;;;11.82
53667;BMP280;39568;51.026;5.468;2022-11-14T11:36:57;100311.97;;;13.54
53667;BMP280;39568;51.026;5.468;2022-11-14T11:39:29;100312.28;;;14.23
53667;BMP280;39568;51.026;5.468;2022-11-14T11:41:59;100299.84;;;13.39
53667;BMP280;39568;51.026;5.468;2022-11-14T11:44:33;100301.84;;;11.82
53667;BMP280;39568;51.026;5.468;2022-11-14T11:47:03;100299.09;;;11.93
53667;BMP280;39568;51.026;5.468;2022-11-14T11:49:39;100300.09;;;11.42
53667;BMP280;39568;51.026;5.468;2022-11-14T11:52:12;100316.25;;;11.20
53667;BMP280;39568;51.026;5.468;2022-11-14T11:54:49;100310.66;;;10.47
53667;BMP280;39568;51.026;5.468;2022-11-14T11:57:23;100307.84;;;10.34
53667;BMP280;39568;51.026;5.468;2022-11-14T11:59:56;100316.47;;;9.83
53667;BMP280;39568;51.026;5.468;2022-11-14T12:02:25;100311.28;;;10.18
53667;BMP280;39568;51.026;5.468;2022-11-14T12:04:55;100302.72;;;9.62
53667;BMP280;39568;51.026;5.468;2022-11-14T12:07:27;100303.41;;;9.85
53667;BMP280;39568;51.026;5.468;2022-11-14T12:09:56;100306.13;;;9.57
53667;BMP280;39568;51.026;5.468;2022-11-14T12:12:29;100297.41;;;9.73
53667;BMP280;39568;51.026;5.468;2022-11-14T12:15:09;100298.63;;;9.78
53667;BMP280;39568;51.026;5.468;2022-11-14T12:18:05;100296.66;;;9.73
53667;BMP280;39568;51.026;5.468;2022-11-14T12:21:03;100283.91;;;9.32
53667;BMP280;39568;51.026;5.468;2022-11-14T12:24:09;100280.03;;;9.67
53667;BMP280;39568;51.026;5.468;2022-11-14T12:26:53;100275.47;;;9.28
53667;BMP280;39568;51.026;5.468;2022-11-14T12:29:30;100280.50;;;9.65
53667;BMP280;39568;51.026;5.468;2022-11-14T12:32:03;100278.09;;;9.56
53667;BMP280;39568;51.026;5.468;2022-11-14T12:34:33;100285.34;;;9.55
53667;BMP280;39568;51.026;5.468;2022-11-14T12:37:08;100284.66;;;9.38
53667;BMP280;39568;51.026;5.468;2022-11-14T12:39:36;100280.28;;;8.91
53667;BMP280;39568;51.026;5.468;2022-11-14T12:42:04;100274.25;;;9.02
53667;BMP280;39568;51.026;5.468;2022-11-14T12:44:34;100266.28;;;9.07
53667;BMP280;39568;51.026;5.468;2022-11-14T12:47:12;100268.94;;;9.02
53667;BMP280;39568;51.026;5.468;2022-11-14T12:52:45;100261.47;;;9.00
53667;BMP280;39568;51.026;5.468;2022-11-14T12:58:22;100251.84;;;9.25
53667;BMP280;39568;51.026;5.468;2022-11-14T13:01:07;100248.34;;;9.80
53667;BMP280;39568;51.026;5.468;2022-11-14T13:03:44;100239.00;;;9.56
53667;BMP280;39568;51.026;5.468;2022-11-14T13:06:19;100242.91;;;9.39
53667;BMP280;39568;51.026;5.468;2022-11-14T13:11:55;100233.97;;;9.47
53667;BMP280;39568;51.026;5.468;2022-11-14T13:14:50;100234.16;;;9.66
53667;BMP280;39568;51.026;5.468;2022-11-14T13:17:36;100239.75;;;9.51
53667;BMP280;39568;51.026;5.468;2022-11-14T13:20:29;100230.47;;;9.86
53667;BMP280;39568;51.026;5.468;2022-11-14T13:26:43;100181.16;;;9.96
53667;BMP280;39568;51.026;5.468;2022-11-14T13:33:01;100185.31;;;10.67
53667;BMP280;39568;51.026;5.468;2022-11-14T13:35:49;100183.44;;;12.47
53667;BMP280;39568;51.026;5.468;2022-11-14T13:42:04;100181.09;;;16.02
53667;BMP280;39568;51.026;5.468;2022-11-14T13:44:50;100188.50;;;15.43
53667;BMP280;39568;51.026;5.468;2022-11-14T13:47:34;100176.91;;;14.48
53667;BMP280;39568;51.026;5.468;2022-11-14T13:50:07;100175.78;;;15.36
53667;BMP280;39568;51.026;5.468;2022-11-14T13:52:40;100177.09;;;14.09
53667;BMP280;39568;51.026;5.468;2022-11-14T13:55:19;100189.44;;;14.53
53667;BMP280;39568;51.026;5.468;2022-11-14T13:57:58;100187.22;;;14.03
53667;BMP280;39568;51.026;5.468;2022-11-14T14:00:29;100182.66;;;
53667;BMP280;39568;51.026;5.468;2022-11-14T14:03:14;100176.06;;;12.53
53667;BMP280;39568;51.026;5.468;2022-11-14T14:08:56;100196.22;;;10.94
53667;BMP280;39568;51.026;5.468;2022-11-14T14:11:34;100189.81;;;9.96
53667;BMP280;39568;51.026;5.468;2022-11-14T14:14:14;100195.75;;;9.62
53667;BMP280;39568;51.026;5.468;2022-11-14T14:16:49;100181.38;;;9.18
53667;BMP280;39568;51.026;5.468;2022-11-14T14:19:33;100179.69;;;9.10
53667;BMP280;39568;51.026;5.468;2022-11-14T14:22:06;100178.25;;;9.14
53667;BMP280;39568;51.026;5.468;2022-11-14T14:24:45;100186.47;;;8.99
53667;BMP280;39568;51.026;5.468;2022-11-14T14:27:20;100181.63;;;8.81
53667;BMP280;39568;51.026;5.468;2022-11-14T14:29:54;100180.44;;;8.88
53667;BMP280;39568;51.026;5.468;2022-11-14T14:32:24;100175.63;;;8.86
53667;BMP280;39568;51.026;5.468;2022-11-14T14:34:51;100176.34;;;9.04
53667;BMP280;39568;51.026;5.468;2022-11-14T14:37:24;100176.31;;;9.20
53667;BMP280;39568;51.026;5.468;2022-11-14T14:39:57;100169.34;;;8.84
53667;BMP280;39568;51.026;5.468;2022-11-14T14:42:25;100167.66;;;8.81
53667;BMP280;39568;51.026;5.468;2022-11-14T14:44:52;100169.59;;;8.80
53667;BMP280;39568;51.026;5.468;2022-11-14T14:47:33;100169.81;;;8.88